Time;durP1;ratioP1;P1;durP2;ratioP2;P2;SDS_P1;SDS_P2;PMS_P1;PMS_P2;Temp;Humidity;BMP_temperature;BMP_pressure;BME280_temperature;BME280_humidity;BME280_pressure;Samples;Min_cycle;Max_cycle;Signal;HPM_P1;HPM_P2
2021/10/15 00:02:12;;;;;;;5.00;3.83;;;12.80;99.90;;;;;;5010016;28;20209;-48
2021/10/15 00:04:39;;;;;;;6.60;4.17;;;12.90;99.90;;;;;;5011145;28;20251;-51
2021/10/15 00:07:06;;;;;;;6.17;4.13;;;12.90;99.90;;;;;;5008474;28;20256;-49
2021/10/15 00:09:34;;;;;;;7.27;4.00;;;12.90;99.90;;;;;;5009063;28;20213;-48
2021/10/15 00:12:00;;;;;;;7.03;4.63;;;12.90;99.90;;;;;;5006960;28;20204;-48
2021/10/15 00:14:27;;;;;;;7.47;3.93;;;12.90;99.90;;;;;;5009762;28;20208;-48
2021/10/15 00:16:54;;;;;;;6.53;4.17;;;12.80;99.90;;;;;;5009354;28;20675;-49
2021/10/15 00:19:21;;;;;;;5.00;3.90;;;12.70;99.90;;;;;;5008704;28;20208;-49
2021/10/15 00:21:48;;;;;;;5.23;4.00;;;12.90;99.90;;;;;;5004249;28;20208;-48
2021/10/15 00:24:14;;;;;;;8.63;4.23;;;12.80;99.90;;;;;;5006467;28;20215;-49
2021/10/15 00:26:45;;;;;;;10.13;4.40;;;12.80;99.90;;;;;;5006062;28;20295;-49
2021/10/15 00:29:12;;;;;;;6.90;4.23;;;12.80;99.90;;;;;;5004207;28;20237;-48
2021/10/15 00:31:39;;;;;;;7.83;4.07;;;12.70;99.90;;;;;;5004049;28;20292;-51
2021/10/15 00:34:06;;;;;;;6.47;4.03;;;12.70;99.90;;;;;;5007521;28;20262;-51
2021/10/15 00:36:33;;;;;;;8.30;4.17;;;12.80;99.90;;;;;;5006734;28;20231;-51
2021/10/15 00:38:59;;;;;;;6.97;4.03;;;12.70;99.90;;;;;;5005442;28;20258;-50
2021/10/15 00:41:26;;;;;;;4.40;4.00;;;12.70;99.90;;;;;;5007819;28;20212;-51
2021/10/15 00:44:11;;;;;;;5.90;4.03;;;12.70;99.90;;;;;;5006578;28;20645;-50
2021/10/15 00:46:42;;;;;;;5.60;4.13;;;12.60;99.90;;;;;;5008173;28;20718;-50
2021/10/15 00:49:11;;;;;;;5.97;4.20;;;12.60;99.90;;;;;;5007409;28;20316;-50
2021/10/15 00:51:39;;;;;;;7.30;4.30;;;12.50;99.90;;;;;;4970576;28;1082421;-49
2021/10/15 00:54:06;;;;;;;7.97;3.77;;;12.60;99.90;;;;;;5009234;28;20288;-50
2021/10/15 00:56:33;;;;;;;7.80;4.97;;;12.50;99.90;;;;;;5005808;28;20279;-51
2021/10/15 00:59:01;;;;;;;5.27;4.17;;;12.50;99.90;;;;;;5010496;28;20228;-48
2021/10/15 01:01:29;;;;;;;6.47;4.30;;;12.50;99.90;;;;;;5008839;28;20303;-51
2021/10/15 01:04:00;;;;;;;8.20;4.40;;;12.60;99.90;;;;;;5009205;28;20252;-48
2021/10/15 01:06:29;;;;;;;5.80;4.57;;;12.50;99.90;;;;;;5008569;28;20207;-50
2021/10/15 01:08:56;;;;;;;6.60;4.20;;;12.50;99.90;;;;;;5009101;28;20206;-51
2021/10/15 01:11:23;;;;;;;7.43;4.37;;;12.50;99.90;;;;;;5007492;28;20606;-50
2021/10/15 01:13:50;;;;;;;7.53;4.40;;;12.50;99.90;;;;;;5009258;28;20240;-50
2021/10/15 01:16:26;;;;;;;6.57;3.90;;;12.50;99.90;;;;;;5007872;28;20606;-50
2021/10/15 01:18:57;;;;;;;8.90;4.47;;;12.50;99.90;;;;;;5009631;28;20205;-51
2021/10/15 01:21:41;;;;;;;5.97;4.03;;;12.60;99.90;;;;;;5006473;28;20326;-51
2021/10/15 01:24:08;;;;;;;8.73;4.27;;;12.50;99.90;;;;;;5006455;28;20288;-50
2021/10/15 01:26:35;;;;;;;5.90;4.73;;;12.50;99.90;;;;;;5005315;28;20244;-51
2021/10/15 01:29:02;;;;;;;8.60;4.20;;;12.40;99.90;;;;;;5009124;28;20297;-47
2021/10/15 01:31:29;;;;;;;6.00;4.30;;;12.50;99.90;;;;;;5006883;28;20209;-51
2021/10/15 01:33:58;;;;;;;8.03;4.93;;;12.40;99.90;;;;;;5007810;28;20219;-48
2021/10/15 01:36:26;;;;;;;7.73;4.37;;;12.40;99.90;;;;;;5004844;28;20320;-51
2021/10/15 01:38:53;;;;;;;6.23;3.93;;;12.40;99.90;;;;;;5006139;28;20287;-51
2021/10/15 01:41:20;;;;;;;7.67;4.73;;;12.50;99.90;;;;;;5008564;28;20231;-48
2021/10/15 01:43:47;;;;;;;7.40;4.33;;;12.40;99.90;;;;;;5007394;28;20196;-49
2021/10/15 01:46:14;;;;;;;6.57;4.83;;;12.40;99.90;;;;;;5008730;28;20727;-50
2021/10/15 01:48:41;;;;;;;6.87;4.37;;;12.40;99.90;;;;;;5009193;28;20574;-50
2021/10/15 01:51:07;;;;;;;6.43;4.40;;;12.40;99.90;;;;;;5007394;28;20291;-49
2021/10/15 01:53:34;;;;;;;7.13;4.60;;;12.40;99.90;;;;;;5005854;28;20227;-49
2021/10/15 01:56:01;;;;;;;6.60;4.73;;;12.30;99.90;;;;;;5008228;28;20668;-49
2021/10/15 01:58:28;;;;;;;9.27;4.30;;;12.40;99.90;;;;;;5006333;28;20281;-50
2021/10/15 02:00:55;;;;;;;6.40;4.47;;;12.30;99.90;;;;;;5007305;28;20738;-47
2021/10/15 02:03:22;;;;;;;9.47;4.80;;;12.30;99.90;;;;;;5005157;28;20208;-48
2021/10/15 02:05:49;;;;;;;5.27;4.20;;;12.30;99.90;;;;;;5006741;28;20735;-48
2021/10/15 02:08:16;;;;;;;8.87;4.40;;;12.20;99.90;;;;;;5008657;28;20200;-48
2021/10/15 02:10:43;;;;;;;6.07;4.80;;;12.30;99.90;;;;;;5007177;28;20235;-51
2021/10/15 02:13:10;;;;;;;6.23;4.50;;;12.30;99.90;;;;;;5006232;28;20918;-48
2021/10/15 02:15:37;;;;;;;7.23;4.63;;;12.30;99.90;;;;;;5006674;28;20280;-51
2021/10/15 02:18:04;;;;;;;7.03;4.73;;;12.30;99.90;;;;;;5007038;28;20204;-48
2021/10/15 02:20:31;;;;;;;8.10;5.10;;;12.30;99.90;;;;;;5008792;28;20256;-48
2021/10/15 02:22:57;;;;;;;6.63;4.53;;;12.20;99.90;;;;;;5007108;28;20645;-49
2021/10/15 02:25:25;;;;;;;6.77;4.83;;;12.20;99.90;;;;;;5006887;28;20598;-49
2021/10/15 02:27:51;;;;;;;6.93;4.40;;;12.30;99.90;;;;;;5007075;28;20242;-48
2021/10/15 02:30:19;;;;;;;6.53;4.90;;;12.20;99.90;;;;;;5004503;28;20261;-50
2021/10/15 02:32:47;;;;;;;8.17;4.90;;;12.20;99.90;;;;;;5007845;28;20629;-50
2021/10/15 02:35:14;;;;;;;9.20;5.67;;;12.20;99.90;;;;;;5007599;28;20730;-50
2021/10/15 02:37:41;;;;;;;10.63;5.77;;;12.10;99.90;;;;;;5006574;28;20242;-50
2021/10/15 02:40:09;;;;;;;7.50;4.67;;;12.20;99.90;;;;;;5008276;28;20238;-51
2021/10/15 02:42:37;;;;;;;8.77;4.90;;;12.20;99.90;;;;;;5006011;28;20715;-49
2021/10/15 02:45:05;;;;;;;8.27;4.93;;;12.10;99.90;;;;;;5007324;28;20234;-50
2021/10/15 02:47:32;;;;;;;9.60;5.70;;;12.10;99.90;;;;;;5009301;28;20632;-50
2021/10/15 02:49:58;;;;;;;6.07;4.83;;;12.10;99.90;;;;;;5009675;28;20217;-49
2021/10/15 02:52:25;;;;;;;11.13;5.23;;;12.10;99.90;;;;;;5007575;28;20235;-50
2021/10/15 02:54:52;;;;;;;6.97;5.53;;;12.10;99.90;;;;;;5007755;28;20306;-49
2021/10/15 02:57:19;;;;;;;9.20;5.67;;;12.10;99.90;;;;;;5007549;28;20231;-50
2021/10/15 02:59:46;;;;;;;7.63;4.80;;;12.10;99.90;;;;;;5007583;28;22460;-51
2021/10/15 03:02:12;;;;;;;9.37;5.47;;;12.10;99.90;;;;;;5009154;28;20291;-51
2021/10/15 03:04:39;;;;;;;8.07;5.10;;;12.10;99.90;;;;;;5009170;28;20208;-50
2021/10/15 03:07:06;;;;;;;7.83;5.10;;;12.10;99.90;;;;;;5005651;28;20235;-48
2021/10/15 03:09:33;;;;;;;7.10;4.90;;;12.10;99.90;;;;;;5006626;28;20215;-51
2021/10/15 03:12:00;;;;;;;9.93;5.43;;;12.20;99.90;;;;;;5006684;28;20255;-50
2021/10/15 03:14:26;;;;;;;9.03;5.70;;;12.20;99.90;;;;;;5008983;28;20211;-50
2021/10/15 03:16:53;;;;;;;6.53;5.03;;;12.20;99.90;;;;;;5007242;28;20243;-50
2021/10/15 03:19:20;;;;;;;9.77;5.33;;;12.20;99.90;;;;;;5005294;28;20220;-50
2021/10/15 03:21:47;;;;;;;6.97;5.00;;;12.30;99.90;;;;;;5007525;28;20208;-49
2021/10/15 03:24:14;;;;;;;9.20;5.33;;;12.30;99.90;;;;;;5005917;28;20326;-49
2021/10/15 03:26:41;;;;;;;7.23;5.00;;;12.30;99.90;;;;;;5004563;28;20248;-49
2021/10/15 03:29:08;;;;;;;9.17;5.83;;;12.30;99.90;;;;;;5007402;28;20682;-49
2021/10/15 03:31:35;;;;;;;8.40;5.67;;;12.30;99.90;;;;;;5007133;28;20585;-50
2021/10/15 03:34:02;;;;;;;6.87;5.23;;;12.30;99.90;;;;;;5008266;28;20596;-50
2021/10/15 03:36:29;;;;;;;11.00;6.30;;;12.20;99.90;;;;;;5004925;28;20226;-51
2021/10/15 03:38:56;;;;;;;9.57;5.60;;;12.20;99.90;;;;;;5006989;28;20279;-48
2021/10/15 03:41:22;;;;;;;7.20;4.90;;;12.10;99.90;;;;;;5005684;28;20287;-48
2021/10/15 03:43:49;;;;;;;8.00;5.43;;;12.10;99.90;;;;;;5006848;28;20295;-51
2021/10/15 03:46:16;;;;;;;6.40;5.10;;;12.20;99.90;;;;;;5003320;28;20239;-50
2021/10/15 03:48:43;;;;;;;10.17;6.30;;;12.20;99.90;;;;;;5006537;28;20762;-50
2021/10/15 03:51:10;;;;;;;13.77;5.87;;;12.10;99.90;;;;;;5006105;28;20255;-50
2021/10/15 03:53:36;;;;;;;12.03;6.00;;;12.20;99.90;;;;;;5006554;28;20618;-50
2021/10/15 03:56:04;;;;;;;8.67;5.27;;;12.30;99.90;;;;;;5005372;28;20670;-50
2021/10/15 03:58:35;;;;;;;8.73;5.50;;;12.20;99.90;;;;;;5005094;28;20205;-50
2021/10/15 04:01:02;;;;;;;7.27;5.50;;;12.20;99.90;;;;;;5006970;28;20210;-50
2021/10/15 04:03:29;;;;;;;9.27;6.20;;;12.10;99.90;;;;;;5008855;28;20204;-51
2021/10/15 04:05:57;;;;;;;8.17;5.60;;;12.10;99.90;;;;;;5008019;28;20217;-50
2021/10/15 04:08:24;;;;;;;11.23;6.03;;;12.10;99.90;;;;;;5007631;28;20307;-50
2021/10/15 04:10:51;;;;;;;8.10;5.30;;;12.10;99.90;;;;;;5006868;28;20252;-51
2021/10/15 04:13:18;;;;;;;11.73;6.33;;;12.10;99.90;;;;;;5007521;28;20232;-50
2021/10/15 04:15:45;;;;;;;9.93;6.43;;;12.10;99.90;;;;;;5007729;28;20243;-50
2021/10/15 04:18:11;;;;;;;13.33;6.10;;;12.10;99.90;;;;;;5008441;28;20237;-51
2021/10/15 04:20:39;;;;;;;9.43;5.20;;;12.10;99.90;;;;;;5007637;28;20660;-50
2021/10/15 04:23:06;;;;;;;9.23;6.33;;;12.10;99.90;;;;;;5007726;28;20274;-48
2021/10/15 04:25:33;;;;;;;10.63;5.93;;;12.10;99.90;;;;;;5006964;28;22365;-50
2021/10/15 04:28:00;;;;;;;9.87;5.77;;;12.20;99.90;;;;;;5007220;28;20224;-48
2021/10/15 04:30:27;;;;;;;9.47;5.87;;;12.10;99.90;;;;;;5004142;28;20307;-48
2021/10/15 04:32:54;;;;;;;12.03;6.60;;;12.10;99.90;;;;;;5007103;28;20915;-51
2021/10/15 04:35:21;;;;;;;8.43;5.60;;;12.10;99.90;;;;;;5009095;28;20239;-49
2021/10/15 04:37:47;;;;;;;8.40;5.70;;;12.10;99.90;;;;;;5012573;28;20259;-49
2021/10/15 04:40:14;;;;;;;10.17;6.63;;;12.10;99.90;;;;;;5009099;28;20277;-49
2021/10/15 04:42:41;;;;;;;8.80;5.63;;;12.20;99.90;;;;;;5010965;28;20840;-48
2021/10/15 04:45:08;;;;;;;7.90;5.13;;;12.10;99.90;;;;;;5010401;28;20287;-49
2021/10/15 04:47:36;;;;;;;10.90;6.00;;;12.20;99.90;;;;;;5011630;28;20557;-49
2021/10/15 04:50:04;;;;;;;8.27;5.93;;;12.20;99.90;;;;;;5009809;28;20245;-49
2021/10/15 04:52:31;;;;;;;10.43;6.20;;;12.20;99.90;;;;;;5009875;28;20238;-49
2021/10/15 04:54:58;;;;;;;9.23;5.73;;;12.30;99.90;;;;;;5010927;28;20213;-49
2021/10/15 04:57:24;;;;;;;7.97;6.30;;;12.30;99.90;;;;;;5010078;28;20201;-48
2021/10/15 04:59:51;;;;;;;7.83;5.90;;;12.30;99.90;;;;;;5011140;28;20261;-49
2021/10/15 05:02:18;;;;;;;8.23;6.40;;;12.30;99.90;;;;;;5005803;28;20201;-49
2021/10/15 05:04:46;;;;;;;9.63;6.07;;;12.30;99.90;;;;;;5009205;28;20963;-48
2021/10/15 05:07:13;;;;;;;8.73;6.27;;;12.30;99.90;;;;;;5009843;28;20287;-49
2021/10/15 05:09:41;;;;;;;11.77;7.23;;;12.30;99.90;;;;;;5010125;28;20283;-49
2021/10/15 05:12:14;;;;;;;11.00;6.60;;;12.40;99.90;;;;;;5006053;28;20305;-49
2021/10/15 05:14:42;;;;;;;12.40;7.37;;;12.40;99.90;;;;;;5010526;28;20207;-49
2021/10/15 05:17:09;;;;;;;11.10;7.10;;;12.50;99.90;;;;;;5006771;28;20259;-48
2021/10/15 05:19:37;;;;;;;12.07;7.40;;;12.50;99.90;;;;;;5009432;28;20247;-49
2021/10/15 05:22:04;;;;;;;8.33;6.90;;;12.50;99.90;;;;;;5005333;28;20213;-49
2021/10/15 05:24:31;;;;;;;13.90;7.70;;;12.50;99.90;;;;;;5008654;28;20274;-48
2021/10/15 05:26:58;;;;;;;9.60;6.97;;;12.50;99.90;;;;;;5006749;28;20235;-49
2021/10/15 05:29:25;;;;;;;11.17;7.10;;;12.50;99.90;;;;;;5007991;28;20208;-48
2021/10/15 05:31:52;;;;;;;9.43;6.93;;;12.60;99.90;;;;;;5009001;28;20300;-51
2021/10/15 05:34:19;;;;;;;10.13;7.83;;;12.50;99.90;;;;;;5007124;28;20209;-49
2021/10/15 05:36:46;;;;;;;14.47;8.40;;;12.60;99.90;;;;;;5008067;28;20327;-49
2021/10/15 05:39:13;;;;;;;11.27;7.50;;;12.60;99.90;;;;;;5007874;28;20228;-49
2021/10/15 05:41:39;;;;;;;9.27;6.90;;;12.60;99.90;;;;;;5004849;28;20212;-49
2021/10/15 05:44:07;;;;;;;9.57;7.23;;;12.50;99.90;;;;;;5004344;28;20264;-49
2021/10/15 05:46:33;;;;;;;10.43;7.80;;;12.60;99.90;;;;;;5005692;28;20208;-49
2021/10/15 05:49:00;;;;;;;11.47;7.17;;;12.60;99.90;;;;;;5006965;28;20204;-49
2021/10/15 05:51:28;;;;;;;9.57;7.40;;;12.60;99.90;;;;;;5007808;28;20245;-49
2021/10/15 05:53:58;;;;;;;11.23;7.67;;;12.60;99.90;;;;;;5008956;28;20284;-48
2021/10/15 05:56:41;;;;;;;10.93;7.33;;;12.60;99.90;;;;;;5007015;28;20202;-49
2021/10/15 05:59:08;;;;;;;12.10;7.57;;;12.60;99.90;;;;;;5005480;28;20246;-48
2021/10/15 06:01:35;;;;;;;11.47;7.53;;;12.60;99.90;;;;;;5001003;28;20204;-49
2021/10/15 06:14:55;;;;;;;14.23;8.40;;;12.60;99.90;;;;;;5008774;28;20290;-49
2021/10/15 06:17:22;;;;;;;11.47;7.47;;;12.60;99.90;;;;;;5006843;28;20213;-48
2021/10/15 06:22:24;;;;;;;11.53;7.57;;;12.60;99.90;;;;;;5002939;28;20205;-48
2021/10/15 06:24:52;;;;;;;8.77;7.30;;;12.60;99.90;;;;;;5002959;28;20236;-51
2021/10/15 06:27:19;;;;;;;12.37;8.33;;;12.60;99.90;;;;;;5010340;28;20288;-50
2021/10/15 06:29:46;;;;;;;14.33;8.43;;;12.70;99.90;;;;;;5000758;28;20239;-50
2021/10/15 06:32:13;;;;;;;12.03;8.60;;;12.70;99.90;;;;;;5004420;28;20213;-49
2021/10/15 06:34:40;;;;;;;13.07;8.23;;;12.70;99.90;;;;;;5005448;28;20342;-49
2021/10/15 06:37:07;;;;;;;11.20;8.17;;;12.70;99.90;;;;;;5002323;28;20224;-49
2021/10/15 06:39:33;;;;;;;11.47;7.50;;;12.80;99.90;;;;;;5002010;28;20228;-49
2021/10/15 06:42:00;;;;;;;9.43;7.90;;;12.70;99.90;;;;;;5007301;28;20208;-49
2021/10/15 06:44:27;;;;;;;12.90;7.90;;;12.80;99.90;;;;;;4999028;28;20266;-50
2021/10/15 06:46:54;;;;;;;14.87;8.47;;;12.70;99.90;;;;;;5000374;28;20625;-50
2021/10/15 06:49:21;;;;;;;9.07;8.03;;;12.70;99.90;;;;;;5005175;28;20666;-49
2021/10/15 06:51:48;;;;;;;11.30;8.40;;;12.80;99.90;;;;;;5000456;28;20241;-49
2021/10/15 06:54:15;;;;;;;12.27;8.70;;;12.70;99.90;;;;;;5002048;28;20234;-49
2021/10/15 06:56:44;;;;;;;11.90;8.33;;;12.80;99.90;;;;;;5002221;28;21032;-49
2021/10/15 06:59:11;;;;;;;13.10;8.77;;;12.80;99.90;;;;;;5006882;28;20946;-49
2021/10/15 07:01:38;;;;;;;10.33;7.87;;;12.80;99.90;;;;;;5005351;28;20351;-50
2021/10/15 07:04:05;;;;;;;11.30;8.53;;;12.90;99.90;;;;;;5006318;28;20209;-49
2021/10/15 07:06:34;;;;;;;13.63;8.40;;;12.90;99.90;;;;;;5001253;28;20197;-49
2021/10/15 07:09:01;;;;;;;12.53;8.73;;;12.90;99.90;;;;;;5003427;28;20263;-49
2021/10/15 07:11:28;;;;;;;16.10;9.40;;;12.90;99.90;;;;;;5005029;28;20217;-49
2021/10/15 07:13:54;;;;;;;12.37;9.50;;;13.00;99.90;;;;;;5008387;28;20284;-49
2021/10/15 07:16:21;;;;;;;12.00;8.80;;;12.90;99.90;;;;;;5005801;28;20197;-49
2021/10/15 07:18:48;;;;;;;12.33;9.23;;;12.90;99.90;;;;;;5004593;28;20212;-49
2021/10/15 07:21:15;;;;;;;15.60;9.70;;;12.90;99.90;;;;;;4998034;28;20657;-49
2021/10/15 07:23:42;;;;;;;13.07;9.17;;;13.00;99.90;;;;;;4998301;28;20209;-49
2021/10/15 07:26:10;;;;;;;11.77;8.80;;;13.00;99.90;;;;;;5001735;28;20677;-49
2021/10/15 07:28:37;;;;;;;16.23;9.63;;;13.00;99.90;;;;;;5003146;28;20211;-48
2021/10/15 07:31:04;;;;;;;19.40;10.20;;;13.00;99.90;;;;;;5003450;28;20225;-49
2021/10/15 07:33:31;;;;;;;14.40;8.53;;;13.20;99.90;;;;;;5004339;28;22000;-49
2021/10/15 07:35:58;;;;;;;10.37;6.07;;;13.20;99.90;;;;;;5001454;28;20240;-50
2021/10/15 07:38:24;;;;;;;8.50;5.33;;;13.20;99.90;;;;;;5003099;28;20707;-49
2021/10/15 07:40:51;;;;;;;4.83;3.90;;;13.20;99.90;;;;;;5003717;28;20205;-48
2021/10/15 07:43:18;;;;;;;6.03;3.20;;;13.20;99.90;;;;;;5005496;28;20234;-48
2021/10/15 07:45:45;;;;;;;3.47;1.47;;;13.20;99.90;;;;;;5006277;28;20827;-50
2021/10/15 07:48:12;;;;;;;2.33;1.30;;;13.10;99.90;;;;;;4999743;28;20309;-50
2021/10/15 07:50:40;;;;;;;2.37;0.93;;;13.20;99.90;;;;;;5008922;28;20216;-49
2021/10/15 07:53:07;;;;;;;1.30;1.00;;;13.10;99.90;;;;;;5006981;28;20580;-50
2021/10/15 07:55:34;;;;;;;2.13;0.70;;;12.90;99.90;;;;;;5004078;28;20521;-48
2021/10/15 07:58:00;;;;;;;1.10;0.63;;;12.80;99.90;;;;;;4996778;28;20208;-51
2021/10/15 08:00:27;;;;;;;1.33;0.50;;;12.70;99.90;;;;;;4998677;28;20231;-49
2021/10/15 08:02:55;;;;;;;0.77;0.40;;;12.50;99.90;;;;;;5000107;28;20213;-51
2021/10/15 08:05:23;;;;;;;0.80;0.40;;;12.50;99.90;;;;;;5000438;28;20206;-49
2021/10/15 08:07:50;;;;;;;2.13;0.40;;;12.50;99.90;;;;;;4995477;28;20674;-51
2021/10/15 08:10:17;;;;;;;2.10;0.60;;;12.50;99.90;;;;;;5002244;28;20286;-52
2021/10/15 08:12:44;;;;;;;3.13;0.67;;;12.50;99.90;;;;;;5012101;28;20264;-49
2021/10/15 08:15:12;;;;;;;1.33;0.50;;;12.60;99.90;;;;;;5011468;28;20209;-49
2021/10/15 08:17:43;;;;;;;3.13;0.50;;;12.60;99.90;;;;;;5012402;28;20196;-49
2021/10/15 08:20:11;;;;;;;0.67;0.20;;;12.60;99.90;;;;;;5010755;28;20200;-48
2021/10/15 08:22:38;;;;;;;1.03;0.33;;;12.60;99.90;;;;;;5011326;28;20595;-49
2021/10/15 08:25:23;;;;;;;2.97;0.77;;;12.60;99.90;;;;;;5005842;28;20255;-49
2021/10/15 08:27:50;;;;;;;0.30;0.30;;;12.70;99.90;;;;;;5004232;28;20207;-49
2021/10/15 08:30:17;;;;;;;4.00;0.67;;;12.50;99.90;;;;;;5011542;28;20207;-49
2021/10/15 08:32:44;;;;;;;1.77;0.60;;;12.50;99.90;;;;;;5006753;28;20295;-49
2021/10/15 08:35:11;;;;;;;4.20;0.53;;;12.70;99.90;;;;;;5011413;28;20198;-50
2021/10/15 08:37:39;;;;;;;1.33;0.50;;;12.70;99.90;;;;;;5009003;28;20250;-49
2021/10/15 08:40:08;;;;;;;2.60;0.50;;;12.60;99.90;;;;;;5011066;28;20209;-49
2021/10/15 08:42:36;;;;;;;2.77;0.70;;;12.70;99.90;;;;;;5011367;28;20281;-49
2021/10/15 08:45:04;;;;;;;2.90;0.80;;;12.90;99.90;;;;;;5005347;28;20239;-50
2021/10/15 08:47:31;;;;;;;1.97;0.60;;;12.90;99.90;;;;;;5003742;28;20202;-49
2021/10/15 08:50:18;;;;;;;3.47;0.90;;;13.00;99.90;;;;;;5010445;28;20878;-50
2021/10/15 08:52:45;;;;;;;3.53;0.60;;;12.70;99.90;;;;;;5011630;28;20239;-49
2021/10/15 08:55:12;;;;;;;7.03;0.70;;;12.80;99.90;;;;;;5010347;28;20296;-49
2021/10/15 08:57:45;;;;;;;4.67;0.70;;;13.00;99.90;;;;;;5008621;28;20255;-49
2021/10/15 09:00:33;;;;;;;3.00;0.70;;;13.00;99.90;;;;;;5009726;28;20195;-49
2021/10/15 09:03:12;;;;;;;2.07;0.70;;;12.90;99.90;;;;;;5011015;28;20219;-49
2021/10/15 09:05:40;;;;;;;3.17;0.77;;;13.10;99.90;;;;;;5008949;28;20304;-49
2021/10/15 09:08:08;;;;;;;2.67;0.73;;;12.90;99.90;;;;;;5007404;28;20660;-50
2021/10/15 09:10:35;;;;;;;4.27;1.10;;;13.00;99.90;;;;;;5009833;28;20202;-49
2021/10/15 09:13:20;;;;;;;2.83;0.90;;;13.10;99.90;;;;;;5009030;28;20707;-50
2021/10/15 09:15:51;;;;;;;7.50;1.20;;;13.20;99.90;;;;;;5005773;28;20199;-50
2021/10/15 09:18:28;;;;;;;3.23;1.10;;;13.30;99.90;;;;;;5011522;28;20301;-50
2021/10/15 09:20:56;;;;;;;1.13;0.70;;;13.20;99.90;;;;;;5005837;28;20656;-50
2021/10/15 09:23:46;;;;;;;4.03;0.90;;;13.20;99.90;;;;;;5006934;28;20298;-49
2021/10/15 09:26:14;;;;;;;4.87;0.77;;;13.10;99.90;;;;;;5000038;28;20200;-49
2021/10/15 09:28:42;;;;;;;3.33;0.73;;;13.20;99.90;;;;;;5000985;28;20208;-49
2021/10/15 09:31:09;;;;;;;2.87;0.70;;;13.30;99.90;;;;;;5005098;28;20203;-49
2021/10/15 09:33:36;;;;;;;3.83;0.80;;;13.30;99.90;;;;;;5006720;28;20310;-49
2021/10/15 09:36:10;;;;;;;2.60;0.80;;;13.30;99.90;;;;;;5008750;28;20202;-49
2021/10/15 09:38:36;;;;;;;3.57;0.67;;;13.30;99.90;;;;;;5003800;28;20226;-49
2021/10/15 09:41:03;;;;;;;2.73;1.17;;;13.40;99.90;;;;;;5003455;28;20203;-49
2021/10/15 09:43:34;;;;;;;3.93;0.80;;;13.50;99.90;;;;;;4998695;28;20632;-50
2021/10/15 09:46:01;;;;;;;2.83;1.00;;;13.50;99.90;;;;;;5007400;28;20254;-49
2021/10/15 09:48:36;;;;;;;3.57;1.00;;;13.60;99.90;;;;;;5000624;28;20191;-49
2021/10/15 09:51:15;;;;;;;5.73;1.20;;;13.70;99.90;;;;;;5006472;28;20266;-50
2021/10/15 09:54:09;;;;;;;7.07;0.90;;;13.80;99.90;;;;;;4999577;28;20195;-49
2021/10/15 09:56:44;;;;;;;2.47;0.97;;;13.70;99.90;;;;;;4996197;28;20195;-49
2021/10/15 09:59:11;;;;;;;4.17;1.00;;;13.90;99.90;;;;;;5009932;28;20578;-49
2021/10/15 10:01:39;;;;;;;3.30;1.20;;;14.20;99.90;;;;;;5010278;28;20254;-50
2021/10/15 10:04:07;;;;;;;6.40;2.20;;;14.20;99.90;;;;;;5007493;28;20206;-50
2021/10/15 10:06:33;;;;;;;4.63;1.30;;;14.40;99.90;;;;;;5009293;28;20204;-50
2021/10/15 10:09:01;;;;;;;6.23;1.37;;;14.50;99.90;;;;;;5010597;28;20228;-49
2021/10/15 10:11:28;;;;;;;3.33;1.07;;;14.40;99.90;;;;;;5009065;28;20688;-50
2021/10/15 10:14:15;;;;;;;4.47;0.87;;;14.60;99.90;;;;;;5008723;28;20203;-49
2021/10/15 10:16:44;;;;;;;4.93;0.80;;;14.20;99.90;;;;;;5009410;28;20227;-50
2021/10/15 10:19:13;;;;;;;4.03;1.47;;;14.30;99.90;;;;;;5010818;28;20207;-50
2021/10/15 10:21:40;;;;;;;4.13;0.73;;;14.40;99.90;;;;;;5009517;28;20233;-49
2021/10/15 10:24:17;;;;;;;3.17;0.83;;;14.40;99.90;;;;;;5005713;28;20647;-50
2021/10/15 10:26:46;;;;;;;3.80;0.70;;;14.70;99.90;;;;;;5005888;28;20209;-51
2021/10/15 10:29:14;;;;;;;6.67;1.40;;;14.90;99.90;;;;;;5006702;28;20198;-50
2021/10/15 10:31:41;;;;;;;3.67;1.13;;;14.70;99.90;;;;;;5000461;28;20251;-50
2021/10/15 10:34:14;;;;;;;4.27;1.13;;;14.60;99.90;;;;;;5005446;28;20820;-50
2021/10/15 10:36:42;;;;;;;5.40;1.13;;;14.70;99.90;;;;;;5004820;28;20284;-50
2021/10/15 10:39:21;;;;;;;4.27;1.17;;;14.70;99.90;;;;;;5000340;28;21562;-49
2021/10/15 10:42:06;;;;;;;5.73;1.17;;;14.60;99.90;;;;;;5000844;28;20223;-50
2021/10/15 10:44:35;;;;;;;2.27;0.90;;;14.60;99.90;;;;;;5004237;28;20232;-50
2021/10/15 10:47:15;;;;;;;3.07;1.03;;;14.80;99.90;;;;;;5010101;28;20232;-51
2021/10/15 10:50:08;;;;;;;3.53;1.20;;;14.80;99.90;;;;;;5002969;28;20208;-50
2021/10/15 10:53:03;;;;;;;8.10;1.17;;;14.70;99.90;;;;;;5003877;28;20757;-61
2021/10/15 10:55:45;;;;;;;3.47;0.83;;;14.80;99.90;;;;;;5000196;28;20196;-50
2021/10/15 10:58:32;;;;;;;6.30;1.03;;;14.90;99.90;;;;;;4997578;28;20291;-51
2021/10/15 11:01:28;;;;;;;2.10;0.63;;;15.10;99.90;;;;;;5002776;28;20202;-51
2021/10/15 11:03:57;;;;;;;3.43;0.90;;;15.10;99.90;;;;;;5003891;28;20228;-51
2021/10/15 11:06:54;;;;;;;2.67;0.70;;;14.80;99.90;;;;;;5000168;28;20294;-51
2021/10/15 11:09:49;;;;;;;3.80;0.97;;;14.80;99.90;;;;;;5003428;28;20332;-50
2021/10/15 11:12:27;;;;;;;5.43;1.00;;;14.60;99.90;;;;;;5002143;28;20311;-51
2021/10/15 11:14:55;;;;;;;8.50;1.50;;;14.60;99.90;;;;;;5001801;28;20512;-51
2021/10/15 11:17:31;;;;;;;5.87;1.10;;;14.40;99.90;;;;;;5003300;28;20199;-51
2021/10/15 11:20:21;;;;;;;4.60;1.10;;;14.60;99.90;;;;;;5005384;28;20238;-50
2021/10/15 11:23:07;;;;;;;3.37;0.73;;;14.80;99.90;;;;;;5000615;28;20243;-51
2021/10/15 11:25:48;;;;;;;5.07;1.40;;;15.10;1.00;;;;;;5002504;28;20328;-50
2021/10/15 11:28:20;;;;;;;3.73;1.03;;;15.10;1.00;;;;;;5002099;28;20210;-50
2021/10/15 11:30:49;;;;;;;5.30;1.10;;;15.40;1.00;;;;;;5002968;28;20209;-51
2021/10/15 11:33:18;;;;;;;4.53;0.87;;;15.40;1.00;;;;;;5000558;28;20220;-51
2021/10/15 11:35:51;;;;;;;4.10;0.80;;;15.50;99.90;;;;;;5004356;28;20254;-51
2021/10/15 11:38:25;;;;;;;3.47;0.83;;;15.80;99.90;;;;;;5005631;28;20632;-51
2021/10/15 11:40:57;;;;;;;4.63;0.80;;;16.00;1.00;;;;;;5003732;28;20652;-51
2021/10/15 11:43:32;;;;;;;4.07;1.00;;;16.00;93.10;;;;;;5003081;28;20293;-49
2021/10/15 11:46:18;;;;;;;2.43;0.80;;;16.50;99.90;;;;;;5010692;28;20237;-50
2021/10/15 11:48:50;;;;;;;5.20;1.00;;;16.70;1.00;;;;;;5007303;28;20221;-50
2021/10/15 11:51:19;;;;;;;3.03;0.90;;;16.90;1.00;;;;;;5007857;28;20245;-51
2021/10/15 11:53:49;;;;;;;4.10;0.80;;;16.50;1.00;;;;;;5005151;28;20264;-51
2021/10/15 11:56:21;;;;;;;3.73;0.90;;;16.70;1.00;;;;;;5006851;28;20573;-51
2021/10/15 11:58:52;;;;;;;4.10;0.90;;;17.20;1.00;;;;;;5008850;28;20221;-51
2021/10/15 12:01:26;;;;;;;3.23;0.90;;;17.50;1.00;;;;;;5005757;28;20198;-51
2021/10/15 12:03:59;;;;;;;4.47;0.83;;;17.80;51.00;;;;;;5010057;28;20202;-51
2021/10/15 12:06:32;;;;;;;5.33;0.97;;;18.10;99.90;;;;;;5005523;28;20202;-51
2021/10/15 12:09:07;;;;;;;4.70;0.93;;;18.40;99.90;;;;;;5005445;28;20291;-52
2021/10/15 12:11:37;;;;;;;4.57;0.63;;;18.80;1.00;;;;;;5007043;28;20250;-51
2021/10/15 12:14:28;;;;;;;4.83;1.00;;;19.10;1.00;;;;;;5007790;28;20230;-51
2021/10/15 12:17:09;;;;;;;5.33;0.80;;;19.10;37.60;;;;;;5002716;28;20204;-51
2021/10/15 12:19:51;;;;;;;4.70;1.00;;;19.10;1.00;;;;;;5003664;28;20199;-51
2021/10/15 12:22:24;;;;;;;4.67;0.90;;;19.10;99.90;;;;;;5005553;28;20615;-50
2021/10/15 12:25:00;;;;;;;4.23;0.70;;;19.30;1.00;;;;;;5003994;28;20203;-53
2021/10/15 12:27:39;;;;;;;3.37;0.70;;;18.80;99.90;;;;;;5005358;28;20583;-52
2021/10/15 12:30:24;;;;;;;3.53;0.80;;;18.10;1.00;;;;;;5007254;28;20249;-53
2021/10/15 12:33:05;;;;;;;4.03;0.87;;;18.20;1.00;;;;;;5009966;28;20252;-50
2021/10/15 12:35:32;;;;;;;4.33;0.83;;;18.70;1.00;;;;;;5005624;28;20259;-49
2021/10/15 12:37:59;;;;;;;3.83;1.00;;;19.20;1.00;;;;;;5009451;28;20229;-51
2021/10/15 12:40:39;;;;;;;5.93;0.97;;;19.10;1.00;;;;;;5010206;28;20627;-51
2021/10/15 12:43:19;;;;;;;6.00;0.90;;;18.60;1.00;;;;;;4999758;28;20232;-51
2021/10/15 12:45:49;;;;;;;3.50;0.87;;;17.30;1.00;;;;;;5007958;28;20208;-50
2021/10/15 12:48:28;;;;;;;7.90;1.27;;;16.70;1.00;;;;;;5008697;28;20684;-51
2021/10/15 12:51:10;;;;;;;2.50;0.80;;;16.60;1.00;;;;;;5006212;28;20262;-51
2021/10/15 12:53:45;;;;;;;2.50;0.80;;;16.60;99.90;;;;;;5010769;28;20220;-50
2021/10/15 12:56:21;;;;;;;5.13;0.80;;;16.40;99.90;;;;;;5012798;28;20207;-51
2021/10/15 12:58:51;;;;;;;3.43;0.70;;;16.40;99.90;;;;;;5012829;28;20204;-50
2021/10/15 13:01:27;;;;;;;5.87;0.97;;;16.70;99.90;;;;;;5012180;28;20290;-50
2021/10/15 13:03:55;;;;;;;4.67;0.80;;;16.50;1.00;;;;;;5012644;28;20596;-51
2021/10/15 13:06:28;;;;;;;6.80;1.20;;;16.10;1.00;;;;;;5011947;28;20612;-52
2021/10/15 13:08:56;;;;;;;5.70;1.00;;;16.00;99.90;;;;;;5000432;28;20208;-52
2021/10/15 13:11:25;;;;;;;4.47;0.90;;;15.80;99.90;;;;;;5012046;28;20260;-52
2021/10/15 13:13:53;;;;;;;4.80;0.70;;;15.70;1.00;;;;;;5012835;28;20566;-52